Time;durP1;ratioP1;P1;durP2;ratioP2;P2;SDS_P1;SDS_P2;PMS_P1;PMS_P2;Temp;Humidity;BMP_temperature;BMP_pressure;BME280_temperature;BME280_humidity;BME280_pressure;Samples;Min_cycle;Max_cycle;Signal;HPM_P1;HPM_P2
2021/12/18 00:01:42;;;;;;;;;;;;;;;27.84;67.74;100983.91;5124259;27;65614;-33
2021/12/18 00:04:12;;;;;;;;;;;;;;;27.87;67.99;100992.66;5130064;27;71012;-33
2021/12/18 00:06:42;;;;;;;;;;;;;;;27.89;67.85;100995.97;5123356;27;66287;-34
2021/12/18 00:09:12;;;;;;;;;;;;;;;27.91;68.16;100994.72;5114961;27;69679;-34
2021/12/18 00:11:42;;;;;;;;;;;;;;;27.95;68.11;100993.31;5101315;27;66345;-35
2021/12/18 00:14:13;;;;;;;;;;;;;;;27.97;67.99;101010.16;5130695;27;70270;-35
2021/12/18 00:16:43;;;;;;;;;;;;;;;27.95;65.76;101012.19;5111306;27;66340;-33
2021/12/18 00:19:13;;;;;;;;;;;;;;;27.93;66.34;101010.72;5120286;27;70197;-33
2021/12/18 00:21:43;;;;;;;;;;;;;;;27.94;66.08;101010.50;5129285;27;65460;-34
2021/12/18 00:24:13;;;;;;;;;;;;;;;27.96;66.09;101013.84;5130127;27;70372;-34
2021/12/18 00:26:43;;;;;;;;;;;;;;;27.96;65.99;101016.53;5125120;27;66429;-34
2021/12/18 00:29:13;;;;;;;;;;;;;;;27.98;66.13;101019.88;5123587;27;70034;-32
2021/12/18 00:31:43;;;;;;;;;;;;;;;28.00;66.13;101015.13;5127298;27;65146;-33
2021/12/18 00:34:14;;;;;;;;;;;;;;;28.00;66.16;101020.53;5124860;27;70148;-33
2021/12/18 00:36:44;;;;;;;;;;;;;;;28.02;66.45;101018.44;5128352;27;66587;-34
2021/12/18 00:39:15;;;;;;;;;;;;;;;28.05;66.30;101028.00;5133007;27;69761;-33
2021/12/18 00:44:16;;;;;;;;;;;;;;;28.09;66.35;101025.78;5130412;27;69923;-33
2021/12/18 00:46:47;;;;;;;;;;;;;;;28.11;66.38;101027.25;5129377;27;66399;-33
2021/12/18 00:49:18;;;;;;;;;;;;;;;28.11;66.66;101027.25;5127573;27;70354;-34
2021/12/18 00:51:48;;;;;;;;;;;;;;;28.09;66.31;101025.78;5131259;27;66593;-33
2021/12/18 00:54:18;;;;;;;;;;;;;;;28.13;66.70;101035.13;5135143;27;69890;-34
2021/12/18 00:56:48;;;;;;;;;;;;;;;28.14;66.76;101039.47;5133683;27;66684;-32
2021/12/18 01:00:02;;;;;;;;;;;;;;;28.14;66.87;101045.72;5110155;27;69370;-33
2021/12/18 01:02:37;;;;;;;;;;;;;;;28.16;66.91;101034.72;5111545;27;66385;-32
2021/12/18 01:05:16;;;;;;;;;;;;;;;28.16;66.80;101045.50;5126566;27;70378;-33
2021/12/18 01:08:01;;;;;;;;;;;;;;;28.16;67.18;101045.50;5125511;27;65940;-33
2021/12/18 01:13:10;;;;;;;;;;;;;;;28.19;67.61;101045.09;5131175;27;66472;-34
2021/12/18 01:15:48;;;;;;;;;;;;;;;28.09;65.71;101037.38;5122945;27;70380;-33
2021/12/18 01:23:56;;;;;;;;;;;;;;;27.88;63.08;101059.84;5125409;27;66053;-36
2021/12/18 01:26:32;;;;;;;;;;;;;;;27.82;62.92;101055.22;5128242;27;69814;-34
2021/12/18 01:29:03;;;;;;;;;;;;;;;27.86;63.47;101067.31;5089600;27;65506;-33
2021/12/18 01:31:33;;;;;;;;;;;;;;;27.85;62.72;101068.31;5129131;27;70270;-35
2021/12/18 01:34:03;;;;;;;;;;;;;;;27.87;63.15;101071.66;5126105;27;65431;-33
2021/12/18 01:36:33;;;;;;;;;;;;;;;27.91;63.32;101074.78;5131199;27;70172;-33
2021/12/18 01:39:04;;;;;;;;;;;;;;;27.88;62.45;101069.78;5125180;27;66461;-34
2021/12/18 01:41:52;;;;;;;;;;;;;;;27.88;62.86;101080.56;5126514;27;69151;-34
2021/12/18 01:51:14;;;;;;;;;;;;;;;27.85;62.21;101073.72;5129894;27;69480;-33
2021/12/18 01:52:52;;;;;;;;;;;;;;;27.89;62.30;101072.31;5123194;27;70180;-32
2021/12/18 01:55:31;;;;;;;;;;;;;;;27.92;62.31;101085.38;5128515;27;66303;-32
2021/12/18 01:58:01;;;;;;;;;;;;;;;27.96;62.35;101089.34;5128489;27;70232;-34
2021/12/18 02:00:35;;;;;;;;;;;;;;;27.94;61.72;101090.56;5125480;27;65763;-33
2021/12/18 02:03:06;;;;;;;;;;;;;;;27.96;62.06;101085.81;5122779;27;70137;-32
2021/12/18 02:05:37;;;;;;;;;;;;;;;27.99;62.06;101088.94;5124700;27;66860;-33
2021/12/18 02:08:08;;;;;;;;;;;;;;;28.01;61.72;101097.69;5105528;27;69668;-33
2021/12/18 02:10:48;;;;;;;;;;;;;;;28.06;62.14;101100.63;5125881;27;66470;-33
2021/12/18 02:21:36;;;;;;;;;;;;;;;28.17;62.13;101111.94;5124222;27;65679;-34
2021/12/18 02:24:08;;;;;;;;;;;;;;;28.17;62.20;101112.75;5121028;27;70428;-34
2021/12/18 02:26:39;;;;;;;;;;;;;;;28.14;62.26;101106.91;5100315;27;66650;-33
2021/12/18 02:29:13;;;;;;;;;;;;;;;28.26;63.11;101118.81;5123771;27;69361;-33
2021/12/18 02:31:44;;;;;;;;;;;;;;;28.32;62.91;101112.63;5101921;27;65647;-33
2021/12/18 02:34:20;;;;;;;;;;;;;;;28.38;62.82;101106.44;5123856;27;69472;-34
2021/12/18 02:36:50;;;;;;;;;;;;;;;28.44;62.68;101113.78;5119179;27;65894;-33
2021/12/18 02:42:10;;;;;;;;;;;;;;;28.52;62.62;101118.19;5126778;27;66179;-33
2021/12/18 02:44:41;;;;;;;;;;;;;;;28.56;62.63;101110.53;5122639;27;69333;-35
2021/12/18 02:47:12;;;;;;;;;;;;;;;28.60;62.24;101117.19;5128417;27;66699;-33
2021/12/18 02:49:44;;;;;;;;;;;;;;;28.65;62.01;101117.44;5130120;27;69457;-34
2021/12/18 02:52:16;;;;;;;;;;;;;;;28.67;61.83;101113.50;5119150;27;65916;-32
2021/12/18 02:54:46;;;;;;;;;;;;;;;28.42;62.03;101067.28;5126448;27;70142;-33
2021/12/18 02:57:16;;;;;;;;;;;;;;;28.73;62.02;101109.19;5121015;27;66368;-33
2021/12/18 02:59:48;;;;;;;;;;;;;;;28.77;61.93;101106.91;5122772;27;69977;-33
2021/12/18 03:02:19;;;;;;;;;;;;;;;28.80;61.20;101107.31;5124905;27;66359;-34
2021/12/18 03:04:55;;;;;;;;;;;;;;;28.80;60.31;101107.31;5120769;27;70122;-34
2021/12/18 03:07:27;;;;;;;;;;;;;;;28.81;60.40;101100.91;5123897;27;66448;-33
2021/12/18 03:23:47;;;;;;;;;;;;;;;29.01;59.66;101102.84;5124530;27;66107;-34
2021/12/18 03:26:18;;;;;;;;;;;;;;;29.01;59.63;101100.16;5125206;27;70771;-34
2021/12/18 03:28:50;;;;;;;;;;;;;;;29.01;60.08;101086.66;5104384;27;67081;-34
2021/12/18 03:31:20;;;;;;;;;;;;;;;29.06;60.24;101078.78;5123265;27;70863;-34
2021/12/18 03:33:50;;;;;;;;;;;;;;;29.12;60.07;101072.59;5120932;27;66749;-34
2021/12/18 03:36:20;;;;;;;;;;;;;;;29.19;59.89;101078.81;5120983;27;69847;-34
2021/12/18 03:38:50;;;;;;;;;;;;;;;29.19;58.84;101068.00;5103033;27;65680;-34
2021/12/18 03:41:21;;;;;;;;;;;;;;;29.24;58.54;101062.84;5107432;27;69844;-34
2021/12/18 03:43:51;;;;;;;;;;;;;;;29.27;58.56;101073.22;5122246;27;66299;-34
2021/12/18 03:46:21;;;;;;;;;;;;;;;29.29;59.19;101063.06;5116637;27;69670;-34
2021/12/18 03:48:52;;;;;;;;;;;;;;;29.31;60.08;101050.19;5120020;27;65698;-33
2021/12/18 03:51:22;;;;;;;;;;;;;;;29.34;60.43;101052.47;5103553;27;68558;-35
2021/12/18 03:53:52;;;;;;;;;;;;;;;29.39;60.43;101047.28;5103961;27;67463;-32
2021/12/18 03:56:23;;;;;;;;;;;;;;;29.40;60.34;101034.59;5121705;27;70096;-34
2021/12/18 03:58:53;;;;;;;;;;;;;;;29.41;60.86;101038.94;5127667;27;66546;-33
2021/12/18 04:01:23;;;;;;;;;;;;;;;29.45;60.70;101034.81;5129269;27;69010;-34
2021/12/18 04:03:55;;;;;;;;;;;;;;;29.47;61.01;101032.72;5117120;27;66529;-33
2021/12/18 04:06:26;;;;;;;;;;;;;;;29.50;61.00;101031.47;5120559;27;70635;-34
2021/12/18 04:08:56;;;;;;;;;;;;;;;29.53;61.06;101025.66;5123442;27;66416;-34
2021/12/18 04:11:26;;;;;;;;;;;;;;;29.56;60.98;101026.09;5122653;27;70147;-34
2021/12/18 04:13:56;;;;;;;;;;;;;;;29.62;60.99;101029.81;5105467;27;66245;-32
2021/12/18 04:16:28;;;;;;;;;;;;;;;29.66;60.79;101017.56;5106853;27;70108;-33
2021/12/18 04:19:01;;;;;;;;;;;;;;;29.69;60.91;101008.22;5125052;27;66168;-32
2021/12/18 04:21:32;;;;;;;;;;;;;;;29.71;60.94;101006.97;5121612;27;70455;-34
2021/12/18 04:24:03;;;;;;;;;;;;;;;29.76;60.38;101001.78;5125240;27;65128;-33
2021/12/18 04:26:34;;;;;;;;;;;;;;;29.81;60.47;100996.56;5125558;27;70426;-34
2021/12/18 04:29:06;;;;;;;;;;;;;;;29.83;60.22;100986.34;5125650;27;65567;-34
2021/12/18 04:31:37;;;;;;;;;;;;;;;29.91;60.42;100984.47;5120547;27;70088;-34
2021/12/18 04:34:08;;;;;;;;;;;;;;;29.92;60.31;100975.31;5122608;27;65979;-35
2021/12/18 04:36:38;;;;;;;;;;;;;;;29.96;60.03;100965.75;5122834;27;69822;-35
2021/12/18 04:39:08;;;;;;;;;;;;;;;29.97;59.56;100952.00;5120450;27;65612;-36
2021/12/18 04:41:42;;;;;;;;;;;;;;;30.03;57.51;100966.53;5121503;27;69899;-34
2021/12/18 04:44:12;;;;;;;;;;;;;;;30.06;56.57;100947.19;5123974;27;66291;-33
2021/12/18 04:46:42;;;;;;;;;;;;;;;30.07;56.57;100940.75;5128693;27;69946;-34
2021/12/18 04:49:13;;;;;;;;;;;;;;;30.07;57.89;100929.91;5124136;27;65367;-34
2021/12/18 04:51:43;;;;;;;;;;;;;;;30.09;57.89;100927.84;5126856;27;69698;-35
2021/12/18 04:54:13;;;;;;;;;;;;;;;30.23;55.76;100925.94;5122292;27;66190;-34
2021/12/18 04:56:43;;;;;;;;;;;;;;;30.28;55.38;100916.13;5124013;27;69503;-34
2021/12/18 04:59:13;;;;;;;;;;;;;;;30.33;54.51;100917.34;5134863;27;65690;-34
2021/12/18 05:01:43;;;;;;;;;;;;;;;30.38;54.20;100909.41;5125955;27;70053;-35
2021/12/18 05:04:14;;;;;;;;;;;;;;;30.41;53.67;100909.00;5129370;27;66628;-34
2021/12/18 05:06:45;;;;;;;;;;;;;;;30.42;53.85;100906.06;5125376;27;71245;-34
2021/12/18 05:09:16;;;;;;;;;;;;;;;30.45;52.81;100893.97;5128112;27;65830;-33
2021/12/18 05:11:46;;;;;;;;;;;;;;;30.52;52.51;100900.16;5123665;27;69932;-33
2021/12/18 05:14:16;;;;;;;;;;;;;;;30.55;50.86;100897.03;5123304;27;66755;-33
2021/12/18 05:16:47;;;;;;;;;;;;;;;30.62;50.40;100892.41;5123222;27;69965;-34
2021/12/18 05:19:17;;;;;;;;;;;;;;;30.65;51.14;100883.84;5128667;27;66889;-33
2021/12/18 05:21:47;;;;;;;;;;;;;;;30.55;51.64;100880.78;5125630;27;70116;-33
2021/12/18 05:24:17;;;;;;;;;;;;;;;30.35;51.07;100871.97;5123850;27;66747;-32
2021/12/18 05:26:48;;;;;;;;;;;;;;;30.13;49.63;100874.94;5127119;27;70390;-32
2021/12/18 05:29:17;;;;;;;;;;;;;;;30.04;50.22;100860.84;5126147;27;66570;-33
2021/12/18 05:31:48;;;;;;;;;;;;;;;29.96;50.30;100862.97;5126732;27;70385;-32
2021/12/18 05:34:22;;;;;;;;;;;;;;;29.90;50.24;100853.00;5121594;27;65197;-33
2021/12/18 05:39:27;;;;;;;;;;;;;;;29.72;49.04;100845.56;5124380;27;66782;-32
2021/12/18 05:41:57;;;;;;;;;;;;;;;29.62;48.55;100832.50;5124195;27;69764;-34
2021/12/18 05:44:27;;;;;;;;;;;;;;;29.59;48.22;100835.63;5103784;27;65719;-32
2021/12/18 05:46:57;;;;;;;;;;;;;;;29.49;47.64;100827.13;5133192;27;70282;-35
2021/12/18 05:49:27;;;;;;;;;;;;;;;29.43;47.07;100836.09;5125028;27;65745;-34
2021/12/18 05:51:57;;;;;;;;;;;;;;;29.39;46.41;100823.00;5130126;27;69614;-32
2021/12/18 05:54:28;;;;;;;;;;;;;;;29.35;46.19;100818.22;5123468;27;66283;-32
2021/12/18 05:56:58;;;;;;;;;;;;;;;29.28;46.44;100820.94;5129899;27;69348;-33
2021/12/18 05:59:28;;;;;;;;;;;;;;;29.29;47.01;100809.09;5125418;27;67185;-33
2021/12/18 06:01:58;;;;;;;;;;;;;;;29.27;47.26;100810.34;5126049;27;69506;-31
2021/12/18 06:04:28;;;;;;;;;;;;;;;29.25;47.15;100802.44;5125007;27;65796;-33
2021/12/18 06:07:04;;;;;;;;;;;;;;;29.17;47.02;100795.41;5117295;27;70346;-33
2021/12/18 06:09:36;;;;;;;;;;;;;;;29.19;46.24;100789.78;5105828;27;65685;-33
2021/12/18 06:12:07;;;;;;;;;;;;;;;29.18;45.50;100783.53;5098142;27;69759;-33
2021/12/18 06:14:38;;;;;;;;;;;;;;;29.08;44.96;100779.63;5095112;27;66727;-34
2021/12/18 06:17:08;;;;;;;;;;;;;;;29.09;44.45;100770.50;5077825;27;70521;-33
2021/12/18 06:19:39;;;;;;;;;;;;;;;29.09;44.44;100770.50;5080371;27;65196;-33
2021/12/18 06:22:09;;;;;;;;;;;;;;;29.06;44.00;100760.09;5103010;27;70398;-32
2021/12/18 06:24:40;;;;;;;;;;;;;;;29.04;44.01;100751.38;5096046;27;66575;-32
2021/12/18 06:27:10;;;;;;;;;;;;;;;29.02;43.63;100748.03;5122726;27;70202;-32
2021/12/18 06:29:42;;;;;;;;;;;;;;;29.07;43.51;100742.84;5111322;27;65708;-32
2021/12/18 06:32:12;;;;;;;;;;;;;;;29.01;43.98;100746.38;5129135;27;69992;-32
2021/12/18 06:34:42;;;;;;;;;;;;;;;29.03;44.36;100738.88;5131281;27;66510;-32
2021/12/18 06:37:12;;;;;;;;;;;;;;;29.03;43.81;100728.94;5111245;27;69098;-32
2021/12/18 06:39:42;;;;;;;;;;;;;;;29.08;44.32;100717.50;5126304;27;66276;-32
2021/12/18 06:42:32;;;;;;;;;;;;;;;29.11;44.28;100717.94;5133007;27;69754;-32
2021/12/18 06:45:03;;;;;;;;;;;;;;;29.05;44.02;100720.63;5122838;27;66491;-33
2021/12/18 06:47:33;;;;;;;;;;;;;;;29.08;44.13;100720.19;5129559;27;70561;-33
2021/12/18 06:50:04;;;;;;;;;;;;;;;29.08;43.83;100715.63;5122240;27;66596;-33
2021/12/18 06:52:34;;;;;;;;;;;;;;;29.08;43.70;100715.63;5112786;27;69331;-32
2021/12/18 06:55:05;;;;;;;;;;;;;;;29.10;43.63;100701.91;5134370;27;66390;-33
2021/12/18 06:57:35;;;;;;;;;;;;;;;29.05;43.20;100693.63;5126004;27;69456;-32
2021/12/18 07:00:06;;;;;;;;;;;;;;;29.10;43.02;100693.81;5122192;27;66835;-33
2021/12/18 07:02:36;;;;;;;;;;;;;;;29.11;42.99;100687.34;5104504;27;70812;-32
2021/12/18 07:05:07;;;;;;;;;;;;;;;29.10;42.63;100675.72;5122490;27;66582;-33
2021/12/18 07:07:39;;;;;;;;;;;;;;;29.08;42.83;100682.38;5123127;27;70074;-33
2021/12/18 07:10:10;;;;;;;;;;;;;;;29.09;43.04;100679.50;5123340;27;66332;-32
2021/12/18 07:12:41;;;;;;;;;;;;;;;29.09;43.34;100679.50;5131689;27;70283;-32
2021/12/18 07:15:11;;;;;;;;;;;;;;;29.06;42.56;100679.06;5134561;27;66552;-32
2021/12/18 07:17:41;;;;;;;;;;;;;;;29.09;42.85;100674.09;5126918;27;70445;-33
2021/12/18 07:20:12;;;;;;;;;;;;;;;29.08;43.09;100664.31;5120131;27;66409;-32
2021/12/18 07:22:45;;;;;;;;;;;;;;;29.12;42.71;100668.25;5130346;27;62600;-32
2021/12/18 07:25:15;;;;;;;;;;;;;;;29.08;42.64;100658.09;5128324;27;65704;-33
2021/12/18 07:27:46;;;;;;;;;;;;;;;29.10;42.78;100653.31;5090694;27;70750;-33
2021/12/18 07:30:17;;;;;;;;;;;;;;;29.12;42.47;100645.81;5119969;27;66475;-32
2021/12/18 07:32:47;;;;;;;;;;;;;;;29.12;42.56;100645.81;5121505;27;70714;-32
2021/12/18 07:35:17;;;;;;;;;;;;;;;29.18;42.55;100644.97;5126220;27;66322;-32
2021/12/18 07:37:47;;;;;;;;;;;;;;;29.19;42.46;100638.50;5128083;27;69461;-32
2021/12/18 07:40:17;;;;;;;;;;;;;;;29.24;41.72;100644.09;5124806;27;66442;-32
2021/12/18 07:42:47;;;;;;;;;;;;;;;29.26;41.69;100636.63;5129314;27;69339;-33
2021/12/18 07:45:17;;;;;;;;;;;;;;;29.28;41.39;100634.53;5132153;27;65528;-32
2021/12/18 07:47:47;;;;;;;;;;;;;;;29.29;41.69;100630.78;5125811;27;69817;-32
2021/12/18 07:50:20;;;;;;;;;;;;;;;29.33;41.11;100626.59;5123923;27;66359;-33
2021/12/18 07:52:50;;;;;;;;;;;;;;;29.32;41.43;100624.94;5131370;27;69027;-32
2021/12/18 07:55:21;;;;;;;;;;;;;;;29.36;41.75;100631.59;5126122;27;65362;-32
2021/12/18 07:57:51;;;;;;;;;;;;;;;29.36;41.28;100628.03;5136444;27;70136;-32
2021/12/18 08:00:22;;;;;;;;;;;;;;;29.42;40.76;100620.94;5109373;27;65688;-33
2021/12/18 08:02:52;;;;;;;;;;;;;;;29.41;41.19;100625.50;5127481;27;69495;-33
2021/12/18 08:05:22;;;;;;;;;;;;;;;29.51;41.69;100623.19;5107104;27;65342;-32
2021/12/18 08:07:52;;;;;;;;;;;;;;;29.50;41.58;100618.78;5106966;27;69894;-33
2021/12/18 08:10:22;;;;;;;;;;;;;;;29.56;41.77;100619.81;5130886;27;65779;-34
2021/12/18 08:12:52;;;;;;;;;;;;;;;29.62;41.13;100624.34;5128458;27;70579;-32
2021/12/18 08:15:23;;;;;;;;;;;;;;;29.63;40.68;100626.03;5129753;27;66128;-32
2021/12/18 08:17:53;;;;;;;;;;;;;;;29.67;41.16;100616.47;5120432;27;70210;-32
2021/12/18 08:20:23;;;;;;;;;;;;;;;29.65;40.69;100618.53;5120582;27;65431;-32
2021/12/18 08:22:53;;;;;;;;;;;;;;;29.68;40.30;100622.69;5107553;27;70002;-33
2021/12/18 08:25:23;;;;;;;;;;;;;;;29.69;40.76;100622.44;5120093;27;66370;-32
2021/12/18 08:27:55;;;;;;;;;;;;;;;29.80;43.89;100613.63;5124027;27;69307;-33
2021/12/18 08:30:29;;;;;;;;;;;;;;;30.01;45.41;100615.16;5112613;27;66081;-32
2021/12/18 08:32:59;;;;;;;;;;;;;;;30.19;46.24;100614.34;5132868;27;69666;-32
2021/12/18 08:35:30;;;;;;;;;;;;;;;30.29;47.17;100613.91;5129020;27;66320;-32
2021/12/18 08:38:01;;;;;;;;;;;;;;;30.39;48.07;100619.59;5123614;27;69133;-33
2021/12/18 08:40:31;;;;;;;;;;;;;;;30.49;49.48;100624.53;5123135;27;66777;-32
2021/12/18 08:43:01;;;;;;;;;;;;;;;30.66;51.86;100617.47;5121998;27;69368;-32
2021/12/18 08:45:31;;;;;;;;;;;;;;;30.72;53.21;100613.03;5120303;27;66014;-33
2021/12/18 08:48:01;;;;;;;;;;;;;;;30.81;53.89;100616.28;5124043;27;69457;-33
2021/12/18 08:50:32;;;;;;;;;;;;;;;30.91;54.92;100616.59;5125447;27;66615;-33
2021/12/18 08:53:02;;;;;;;;;;;;;;;31.01;54.85;100619.59;5104514;27;69460;-33
2021/12/18 08:55:32;;;;;;;;;;;;;;;31.09;55.02;100622.00;5125835;27;66514;-33
2021/12/18 08:58:02;;;;;;;;;;;;;;;31.16;55.38;100621.91;5125556;27;68909;-33
2021/12/18 09:00:33;;;;;;;;;;;;;;;31.19;55.65;100624.16;5125916;27;65812;-34
2021/12/18 09:03:04;;;;;;;;;;;;;;;31.20;55.17;100624.97;5126353;27;71350;-33
2021/12/18 09:05:34;;;;;;;;;;;;;;;31.23;55.71;100640.78;5125777;27;66372;-33
2021/12/18 09:08:04;;;;;;;;;;;;;;;31.30;52.43;100636.09;5108860;27;69845;-35
2021/12/18 09:10:34;;;;;;;;;;;;;;;31.47;48.50;100633.59;5132003;27;66474;-34
2021/12/18 09:13:04;;;;;;;;;;;;;;;31.60;47.02;100636.94;5108735;27;70242;-33
2021/12/18 09:15:35;;;;;;;;;;;;;;;31.60;46.76;100631.53;5125920;27;66989;-34
2021/12/18 09:18:05;;;;;;;;;;;;;;;31.71;45.48;100624.50;5103581;27;69858;-34
2021/12/18 09:20:35;;;;;;;;;;;;;;;31.80;45.33;100635.84;5125927;27;65708;-33
2021/12/18 09:23:05;;;;;;;;;;;;;;;31.84;45.82;100647.84;5126801;27;69957;-33
2021/12/18 09:25:37;;;;;;;;;;;;;;;31.85;46.36;100649.53;5131527;27;67405;-32
2021/12/18 09:28:07;;;;;;;;;;;;;;;31.84;47.07;100642.44;5128095;27;70062;-34
2021/12/18 09:30:37;;;;;;;;;;;;;;;31.82;47.78;100655.41;5111512;27;65122;-34
2021/12/18 09:33:12;;;;;;;;;;;;;;;31.81;48.85;100653.75;5125668;27;70225;-34
2021/12/18 09:35:42;;;;;;;;;;;;;;;31.80;48.20;100662.94;5129275;27;66818;-34
2021/12/18 09:38:12;;;;;;;;;;;;;;;31.72;48.85;100663.28;5125433;27;70211;-34
2021/12/18 09:40:42;;;;;;;;;;;;;;;31.67;49.19;100663.97;5129149;27;66602;-34
2021/12/18 09:43:12;;;;;;;;;;;;;;;31.61;50.37;100671.13;5124201;27;69915;-34
2021/12/18 09:45:47;;;;;;;;;;;;;;;31.53;50.34;100663.31;5114239;27;65669;-33
2021/12/18 09:48:17;;;;;;;;;;;;;;;31.60;51.37;100685.75;5123845;27;70469;-34
2021/12/18 09:50:55;;;;;;;;;;;;;;;31.52;51.40;100669.81;5127835;27;66403;-34
2021/12/18 09:53:25;;;;;;;;;;;;;;;31.53;51.62;100674.16;5125579;27;69170;-33
2021/12/18 09:55:55;;;;;;;;;;;;;;;31.48;52.02;100682.19;5122998;27;66636;-33
2021/12/18 09:58:25;;;;;;;;;;;;;;;31.48;52.49;100684.91;5131287;27;69035;-33
2021/12/18 10:00:56;;;;;;;;;;;;;;;31.46;52.75;100686.19;5125319;27;65842;-33
2021/12/18 10:03:46;;;;;;;;;;;;;;;31.48;52.74;100681.34;5130113;27;70257;-33
2021/12/18 10:06:46;;;;;;;;;;;;;;;31.66;52.35;100680.47;5113548;27;66566;-32
2021/12/18 10:09:18;;;;;;;;;;;;;;;31.81;52.02;100686.28;5111973;27;70067;-33
2021/12/18 10:11:50;;;;;;;;;;;;;;;31.90;52.37;100684.91;5114713;27;66239;-32
2021/12/18 10:14:32;;;;;;;;;;;;;;;31.97;51.93;100693.81;5107364;27;70298;-33
2021/12/18 10:17:03;;;;;;;;;;;;;;;32.02;51.67;100693.13;5123306;27;66250;-33
2021/12/18 10:19:35;;;;;;;;;;;;;;;32.07;51.55;100700.53;5123610;27;69201;-33
2021/12/18 10:22:09;;;;;;;;;;;;;;;32.11;51.64;100707.16;5112569;27;66723;-33
2021/12/18 10:24:40;;;;;;;;;;;;;;;32.12;51.46;100719.66;5127504;27;69618;-33
2021/12/18 10:27:21;;;;;;;;;;;;;;;32.11;51.32;100713.41;5128555;27;66891;-33
2021/12/18 10:29:54;;;;;;;;;;;;;;;32.12;51.65;100711.53;5113039;27;70267;-33
2021/12/18 10:32:24;;;;;;;;;;;;;;;32.13;51.47;100719.44;5123618;27;66894;-32
2021/12/18 10:34:58;;;;;;;;;;;;;;;32.13;51.95;100715.91;5126319;27;70377;-32
2021/12/18 10:37:29;;;;;;;;;;;;;;;32.14;51.54;100728.41;5129056;27;66674;-32
2021/12/18 10:39:59;;;;;;;;;;;;;;;32.13;51.92;100727.59;5135684;27;70309;-32
2021/12/18 10:42:33;;;;;;;;;;;;;;;32.11;51.71;100729.69;5127003;27;66740;-33
2021/12/18 10:45:06;;;;;;;;;;;;;;;32.12;51.61;100730.53;5126748;27;69272;-33
2021/12/18 10:47:44;;;;;;;;;;;;;;;32.11;51.18;100734.31;5125941;27;66339;-33
2021/12/18 10:50:32;;;;;;;;;;;;;;;32.10;51.31;100738.91;5129518;27;69048;-33
2021/12/18 10:53:13;;;;;;;;;;;;;;;32.10;51.05;100744.34;5129533;27;66296;-33
2021/12/18 10:55:45;;;;;;;;;;;;;;;32.01;51.35;100730.28;5129022;27;69985;-33
2021/12/18 10:58:18;;;;;;;;;;;;;;;32.09;51.37;100741.84;5128153;27;66949;-32
2021/12/18 11:00:48;;;;;;;;;;;;;;;32.09;51.61;100747.25;5128276;27;69355;-32
2021/12/18 11:03:20;;;;;;;;;;;;;;;32.08;51.26;100748.34;5134935;27;65470;-33
2021/12/18 11:06:05;;;;;;;;;;;;;;;32.05;51.45;100747.72;5131748;27;70365;-32
2021/12/18 11:08:38;;;;;;;;;;;;;;;32.05;50.92;100747.72;5128498;27;66642;-33
2021/12/18 11:13:57;;;;;;;;;;;;;;;32.04;51.59;100759.66;5130486;27;66884;-32
2021/12/18 11:16:28;;;;;;;;;;;;;;;32.02;51.45;100764.47;5127195;27;71580;-33
2021/12/18 11:18:58;;;;;;;;;;;;;;;32.00;51.92;100761.16;5129473;27;66053;-32
2021/12/18 11:21:30;;;;;;;;;;;;;;;32.00;51.72;100771.19;5128917;27;70627;-33
2021/12/18 11:24:07;;;;;;;;;;;;;;;31.99;51.78;100775.78;5124118;27;66561;-32
2021/12/18 11:26:41;;;;;;;;;;;;;;;31.97;51.55;100772.47;5131426;27;70335;-33
2021/12/18 11:29:20;;;;;;;;;;;;;;;31.96;51.25;100781.69;5123818;27;66165;-33
2021/12/18 11:31:50;;;;;;;;;;;;;;;31.96;50.78;100786.28;5121346;27;71035;-33
2021/12/18 11:34:21;;;;;;;;;;;;;;;31.94;51.30;100789.22;5125990;27;66892;-33
2021/12/18 11:36:51;;;;;;;;;;;;;;;31.93;51.57;100787.56;5131191;27;69743;-33
2021/12/18 11:39:24;;;;;;;;;;;;;;;31.91;51.33;100795.09;5121098;27;65667;-33
2021/12/18 11:41:54;;;;;;;;;;;;;;;31.82;51.34;100781.00;5120098;27;70140;-33
2021/12/18 11:44:27;;;;;;;;;;;;;;;31.89;51.14;100801.78;5120267;27;66342;-33
2021/12/18 11:46:58;;;;;;;;;;;;;;;31.85;50.68;100801.41;5125313;27;69459;-33
2021/12/18 11:49:42;;;;;;;;;;;;;;;31.68;51.26;100795.81;5112434;27;66208;-33
2021/12/18 11:52:12;;;;;;;;;;;;;;;31.53;51.94;100811.63;5127413;27;70129;-33
2021/12/18 11:54:51;;;;;;;;;;;;;;;31.37;51.73;100805.75;5124215;27;66411;-33
2021/12/18 11:57:39;;;;;;;;;;;;;;;31.26;51.72;100813.75;5126521;27;70658;-33
2021/12/18 12:00:12;;;;;;;;;;;;;;;31.23;51.67;100820.47;5104829;27;66596;-32
2021/12/18 12:02:46;;;;;;;;;;;;;;;31.21;52.77;100821.75;5118154;27;70323;-34
2021/12/18 12:05:18;;;;;;;;;;;;;;;31.14;52.83;100836.16;5124784;27;65583;-33
2021/12/18 12:07:51;;;;;;;;;;;;;;;31.10;53.23;100837.69;5128793;27;69757;-33
2021/12/18 12:12:55;;;;;;;;;;;;;;;31.10;52.94;100842.28;5126581;27;69734;-33
2021/12/18 12:15:27;;;;;;;;;;;;;;;31.08;52.46;100839.78;5115026;27;66390;-33
2021/12/18 12:18:01;;;;;;;;;;;;;;;31.09;52.43;100848.72;5110965;27;68984;-33
2021/12/18 12:20:34;;;;;;;;;;;;;;;31.07;52.53;100843.53;5110439;27;65593;-33
2021/12/18 12:23:07;;;;;;;;;;;;;;;31.06;52.42;100843.75;5128781;27;69433;-33
2021/12/18 12:25:47;;;;;;;;;;;;;;;31.06;52.13;100847.28;5126318;27;65597;-33
2021/12/18 12:28:21;;;;;;;;;;;;;;;31.03;52.49;100853.16;5126664;27;70671;-32
2021/12/18 12:31:00;;;;;;;;;;;;;;;31.01;52.39;100860.69;5118743;27;67025;-35
2021/12/18 12:33:32;;;;;;;;;;;;;;;31.00;52.06;100853.59;5118054;27;70544;-34
2021/12/18 12:36:10;;;;;;;;;;;;;;;30.99;51.89;100851.94;5123392;27;66287;-32
2021/12/18 12:38:53;;;;;;;;;;;;;;;30.99;51.11;100862.78;5121117;27;70119;-34
2021/12/18 12:41:41;;;;;;;;;;;;;;;30.98;50.91;100858.44;5126700;27;66214;-35
2021/12/18 12:44:36;;;;;;;;;;;;;;;30.95;50.55;100866.97;5125956;27;70576;-34
2021/12/18 12:47:16;;;;;;;;;;;;;;;30.93;51.02;100859.09;5125805;27;65872;-34
2021/12/18 12:49:58;;;;;;;;;;;;;;;30.94;50.69;100865.31;5132688;27;69447;-34
2021/12/18 12:52:30;;;;;;;;;;;;;;;30.94;50.66;100865.31;5083064;27;65532;-33
2021/12/18 12:55:06;;;;;;;;;;;;;;;30.94;50.65;100873.44;5125730;27;70347;-34
2021/12/18 12:57:40;;;;;;;;;;;;;;;30.90;50.43;100870.38;5131387;27;66285;-34
2021/12/18 13:00:16;;;;;;;;;;;;;;;30.92;50.63;100872.84;5126843;27;69429;-33
2021/12/18 13:02:59;;;;;;;;;;;;;;;30.91;50.42;100876.59;5130158;27;66946;-35
2021/12/18 13:05:44;;;;;;;;;;;;;;;30.91;50.54;100880.13;5126272;27;70596;-33
2021/12/18 13:08:20;;;;;;;;;;;;;;;30.71;49.12;100877.56;5116617;27;66417;-32
2021/12/18 13:11:02;;;;;;;;;;;;;;;30.49;48.29;100873.53;5115779;27;69180;-34
2021/12/18 13:13:46;;;;;;;;;;;;;;;30.40;47.37;100881.09;5111346;27;66258;-34
2021/12/18 13:16:21;;;;;;;;;;;;;;;30.21;46.87;100874.72;5108255;27;70150;-34
2021/12/18 13:19:04;;;;;;;;;;;;;;;30.14;47.38;100884.72;5117192;27;65700;-33
2021/12/18 13:21:53;;;;;;;;;;;;;;;29.97;47.41;100870.03;5126015;27;69346;-34
2021/12/18 13:24:33;;;;;;;;;;;;;;;30.01;47.24;100887.50;5117382;27;66674;-34
2021/12/18 13:27:16;;;;;;;;;;;;;;;29.95;47.63;100880.22;5108897;27;70729;-34
2021/12/18 13:30:13;;;;;;;;;;;;;;;29.90;47.17;100894.41;5100246;27;64931;-35
2021/12/18 13:33:06;;;;;;;;;;;;;;;29.83;46.76;100897.13;5139130;27;69984;-34
2021/12/18 13:35:43;;;;;;;;;;;;;;;29.74;47.08;100892.16;5108481;27;65580;-34
2021/12/18 13:38:20;;;;;;;;;;;;;;;29.69;46.41;100895.50;5123717;27;70344;-34
2021/12/18 13:40:55;;;;;;;;;;;;;;;29.71;47.53;100893.41;5104332;27;66405;-34
2021/12/18 13:43:41;;;;;;;;;;;;;;;29.83;47.20;100907.94;5108562;27;69076;-34
2021/12/18 13:46:19;;;;;;;;;;;;;;;29.88;46.34;100903.78;5113090;27;66196;-34
2021/12/18 13:49:18;;;;;;;;;;;;;;;29.91;46.22;100922.28;5095173;27;70096;-34
2021/12/18 13:52:17;;;;;;;;;;;;;;;29.90;45.91;100923.34;5129891;27;66968;-34
2021/12/18 13:55:55;;;;;;;;;;;;;;;29.88;45.97;100914.59;5123054;27;69687;-34